Time;durP1;ratioP1;P1;durP2;ratioP2;P2;SDS_P1;SDS_P2;PMS_P1;PMS_P2;Temp;Humidity;BMP_temperature;BMP_pressure;BME280_temperature;BME280_humidity;BME280_pressure;Samples;Min_cycle;Max_cycle;Signal;HPM_P1;HPM_P2
2023/06/29 00:01:33;;;;;;;2.78;2.40;;;;;;;;;;5093225;28;20050;-85
2023/06/29 00:04:01;;;;;;;2.90;2.28;;;;;;;;;;5092406;28;20048;-85
2023/06/29 00:06:36;;;;;;;4.82;2.90;;;;;;;;;;5092489;28;20074;-85
2023/06/29 00:09:04;;;;;;;3.15;2.45;;;;;;;;;;5097374;28;20074;-85
2023/06/29 00:11:31;;;;;;;3.25;2.83;;;;;;;;;;5101233;28;20052;-85
2023/06/29 00:13:59;;;;;;;3.00;2.70;;;;;;;;;;5102353;28;20048;-85
2023/06/29 00:16:26;;;;;;;2.90;2.60;;;;;;;;;;5105413;28;20044;-85
2023/06/29 00:18:54;;;;;;;2.35;2.25;;;;;;;;;;5104570;28;20107;-85
2023/06/29 00:21:21;;;;;;;5.28;2.80;;;;;;;;;;5105164;28;20470;-86
2023/06/29 00:23:53;;;;;;;2.65;2.42;;;;;;;;;;5111644;28;20055;-85
2023/06/29 00:26:21;;;;;;;3.15;2.70;;;;;;;;;;5100130;28;20076;-85
2023/06/29 00:28:51;;;;;;;3.80;2.90;;;;;;;;;;5096877;28;20059;-84
2023/06/29 00:31:22;;;;;;;6.57;3.25;;;;;;;;;;5097606;28;20451;-85
2023/06/29 00:33:49;;;;;;;4.95;2.72;;;;;;;;;;5099234;28;20051;-84
2023/06/29 00:36:17;;;;;;;6.63;2.75;;;;;;;;;;5095805;28;20048;-85
2023/06/29 00:38:46;;;;;;;5.28;2.78;;;;;;;;;;5095555;28;20044;-84
2023/06/29 00:41:14;;;;;;;5.88;2.80;;;;;;;;;;5095758;28;20125;-85
2023/06/29 00:43:45;;;;;;;3.25;2.60;;;;;;;;;;5095625;28;20058;-84
2023/06/29 00:46:13;;;;;;;2.90;2.70;;;;;;;;;;5095770;28;20052;-84
2023/06/29 00:48:41;;;;;;;2.92;2.72;;;;;;;;;;5096995;28;20048;-84
2023/06/29 00:51:08;;;;;;;3.40;3.05;;;;;;;;;;5095630;28;20073;-84
2023/06/29 00:53:37;;;;;;;3.28;2.97;;;;;;;;;;5095286;28;20048;-84
2023/06/29 00:56:05;;;;;;;3.47;3.13;;;;;;;;;;5095843;28;20440;-85
2023/06/29 00:58:32;;;;;;;3.15;2.90;;;;;;;;;;5095514;28;20054;-84
2023/06/29 01:01:00;;;;;;;4.43;3.53;;;;;;;;;;5095281;28;20443;-85
2023/06/29 01:03:30;;;;;;;9.23;3.78;;;;;;;;;;5095576;28;20131;-84
2023/06/29 01:06:03;;;;;;;7.00;3.80;;;;;;;;;;5095619;28;20230;-85
2023/06/29 01:08:37;;;;;;;3.30;3.00;;;;;;;;;;5095168;28;20432;-84
2023/06/29 01:11:04;;;;;;;6.90;3.13;;;;;;;;;;5095884;28;20060;-85
2023/06/29 01:13:32;;;;;;;4.35;2.85;;;;;;;;;;5095830;28;20048;-85
2023/06/29 01:16:01;;;;;;;4.38;3.05;;;;;;;;;;5095414;28;20055;-84
2023/06/29 01:18:30;;;;;;;2.97;2.60;;;;;;;;;;5095554;28;20077;-84
2023/06/29 01:20:57;;;;;;;3.17;2.92;;;;;;;;;;5095216;28;20058;-85
2023/06/29 01:23:26;;;;;;;3.38;3.15;;;;;;;;;;5095581;28;20052;-84
2023/06/29 01:25:55;;;;;;;5.97;2.78;;;;;;;;;;5096214;28;20494;-84
2023/06/29 01:28:22;;;;;;;8.48;3.92;;;;;;;;;;5095219;28;20055;-84
2023/06/29 01:30:49;;;;;;;4.85;3.40;;;;;;;;;;5095007;28;20054;-84
2023/06/29 01:33:19;;;;;;;3.65;3.35;;;;;;;;;;5094897;28;20135;-85
2023/06/29 01:35:46;;;;;;;3.25;3.05;;;;;;;;;;5094607;28;20048;-85
2023/06/29 01:38:17;;;;;;;3.67;3.38;;;;;;;;;;5094813;28;20101;-84
2023/06/29 01:40:47;;;;;;;6.65;3.50;;;;;;;;;;5094519;28;20052;-84
2023/06/29 01:43:15;;;;;;;7.45;3.95;;;;;;;;;;5100197;28;20432;-85
2023/06/29 01:45:43;;;;;;;4.32;3.90;;;;;;;;;;5095185;28;20063;-86
2023/06/29 01:48:11;;;;;;;5.97;3.92;;;;;;;;;;5093844;28;20040;-86
2023/06/29 01:50:38;;;;;;;5.75;4.03;;;;;;;;;;5093288;28;20044;-86
2023/06/29 01:53:06;;;;;;;3.88;3.40;;;;;;;;;;5093573;28;20052;-86
2023/06/29 01:55:33;;;;;;;4.65;3.70;;;;;;;;;;5093745;28;20048;-86
2023/06/29 01:58:01;;;;;;;3.90;3.40;;;;;;;;;;5093437;28;20052;-86
2023/06/29 02:00:28;;;;;;;3.47;3.28;;;;;;;;;;5093636;28;20067;-86
2023/06/29 02:02:56;;;;;;;4.97;3.78;;;;;;;;;;5093100;28;20048;-86
2023/06/29 02:05:23;;;;;;;6.15;3.50;;;;;;;;;;5093301;28;20043;-86
2023/06/29 02:07:51;;;;;;;3.85;3.38;;;;;;;;;;5092818;28;20563;-86
2023/06/29 02:10:18;;;;;;;5.53;3.90;;;;;;;;;;5092993;28;20489;-86
2023/06/29 02:12:45;;;;;;;5.05;4.40;;;;;;;;;;5092866;28;20051;-86
2023/06/29 02:15:13;;;;;;;4.63;4.22;;;;;;;;;;5092894;28;20512;-86
2023/06/29 02:17:40;;;;;;;4.18;3.88;;;;;;;;;;5092583;28;20044;-86
2023/06/29 02:20:09;;;;;;;5.35;4.00;;;;;;;;;;5092990;28;20050;-86
2023/06/29 02:22:36;;;;;;;5.25;4.57;;;;;;;;;;5092478;28;20055;-86
2023/06/29 02:25:04;;;;;;;4.82;4.38;;;;;;;;;;5094006;28;20120;-86
2023/06/29 02:27:31;;;;;;;6.57;4.10;;;;;;;;;;5092746;28;20048;-86
2023/06/29 02:29:59;;;;;;;7.47;4.25;;;;;;;;;;5092551;28;20047;-86
2023/06/29 02:32:26;;;;;;;7.07;4.15;;;;;;;;;;5092405;28;20048;-86
2023/06/29 02:34:53;;;;;;;5.70;4.10;;;;;;;;;;5092569;28;20524;-86
2023/06/29 02:37:21;;;;;;;7.18;4.70;;;;;;;;;;5092093;28;20119;-86
2023/06/29 02:39:48;;;;;;;5.32;4.82;;;;;;;;;;5092452;28;20063;-86
2023/06/29 02:42:15;;;;;;;6.78;4.65;;;;;;;;;;5094479;28;20051;-86
2023/06/29 02:44:43;;;;;;;4.65;4.20;;;;;;;;;;5094611;28;20409;-86
2023/06/29 02:47:10;;;;;;;6.03;4.45;;;;;;;;;;5092384;28;20052;-86
2023/06/29 02:49:37;;;;;;;5.78;4.53;;;;;;;;;;5092314;28;20121;-86
2023/06/29 02:52:05;;;;;;;5.22;4.40;;;;;;;;;;5092435;28;20047;-86
2023/06/29 02:54:32;;;;;;;4.93;4.20;;;;;;;;;;5092389;28;20055;-85
2023/06/29 02:57:00;;;;;;;8.45;5.10;;;;;;;;;;5091982;28;20055;-86
2023/06/29 02:59:27;;;;;;;7.85;5.22;;;;;;;;;;5092168;28;20044;-86
2023/06/29 03:01:54;;;;;;;5.65;4.53;;;;;;;;;;5091884;28;20097;-85
2023/06/29 03:04:22;;;;;;;5.30;4.90;;;;;;;;;;5092237;28;20047;-86
2023/06/29 03:06:49;;;;;;;7.57;5.28;;;;;;;;;;5092059;28;20051;-86
2023/06/29 03:09:16;;;;;;;5.20;4.60;;;;;;;;;;5091855;28;20044;-86
2023/06/29 03:11:44;;;;;;;4.63;4.22;;;;;;;;;;5091855;28;20044;-85
2023/06/29 03:14:11;;;;;;;5.47;4.88;;;;;;;;;;5092192;28;20048;-85
2023/06/29 03:16:39;;;;;;;5.57;4.28;;;;;;;;;;5093163;28;20047;-86
2023/06/29 03:19:06;;;;;;;5.55;5.15;;;;;;;;;;5093636;28;20102;-86
2023/06/29 03:21:34;;;;;;;4.93;4.60;;;;;;;;;;5093384;28;20040;-86
2023/06/29 03:24:01;;;;;;;5.35;4.70;;;;;;;;;;5092136;28;20460;-86
2023/06/29 03:26:28;;;;;;;7.75;5.20;;;;;;;;;;5091661;28;20044;-86
2023/06/29 03:28:55;;;;;;;8.95;5.63;;;;;;;;;;5091642;28;20056;-86
2023/06/29 03:31:23;;;;;;;5.15;4.75;;;;;;;;;;5091589;28;20052;-85
2023/06/29 03:33:50;;;;;;;5.78;5.28;;;;;;;;;;5091563;28;20059;-86
2023/06/29 03:36:19;;;;;;;5.72;5.28;;;;;;;;;;5092861;28;20125;-86
2023/06/29 03:38:46;;;;;;;5.30;4.75;;;;;;;;;;5092574;28;20131;-86
2023/06/29 03:41:13;;;;;;;5.78;5.15;;;;;;;;;;5091530;28;20044;-86
2023/06/29 03:43:41;;;;;;;6.07;5.45;;;;;;;;;;5091368;28;20051;-86
2023/06/29 03:46:08;;;;;;;7.63;5.80;;;;;;;;;;5091526;28;20048;-86
2023/06/29 03:48:36;;;;;;;6.65;4.97;;;;;;;;;;5091446;28;20105;-85
2023/06/29 03:51:03;;;;;;;5.90;5.30;;;;;;;;;;5095744;28;20051;-86
2023/06/29 03:53:31;;;;;;;6.07;5.47;;;;;;;;;;5095586;28;20055;-86
2023/06/29 03:55:58;;;;;;;6.30;5.63;;;;;;;;;;5096400;28;20052;-85
2023/06/29 03:58:25;;;;;;;6.55;5.05;;;;;;;;;;5095483;28;20051;-86
2023/06/29 04:00:53;;;;;;;5.45;4.95;;;;;;;;;;5095760;28;20040;-85
2023/06/29 04:03:20;;;;;;;6.05;5.55;;;;;;;;;;5095765;28;20051;-85
2023/06/29 04:05:48;;;;;;;5.25;4.82;;;;;;;;;;5096899;28;20044;-86
2023/06/29 04:08:15;;;;;;;6.45;5.53;;;;;;;;;;5095733;28;20052;-85
2023/06/29 04:10:42;;;;;;;6.00;5.50;;;;;;;;;;5096655;28;20508;-86
2023/06/29 04:13:10;;;;;;;8.85;5.20;;;;;;;;;;5096637;28;20044;-85
2023/06/29 04:15:37;;;;;;;6.07;5.47;;;;;;;;;;5095478;28;20071;-85
2023/06/29 04:18:04;;;;;;;6.38;5.10;;;;;;;;;;5095435;28;20040;-85
2023/06/29 04:20:32;;;;;;;6.13;4.80;;;;;;;;;;5095576;28;20044;-85
2023/06/29 04:23:00;;;;;;;4.68;4.28;;;;;;;;;;5096904;28;20051;-85
2023/06/29 04:25:27;;;;;;;5.00;4.50;;;;;;;;;;5095000;28;20055;-86
2023/06/29 04:27:55;;;;;;;4.90;4.50;;;;;;;;;;5095133;28;20052;-86
2023/06/29 04:30:22;;;;;;;5.53;4.43;;;;;;;;;;5095264;28;20418;-85
2023/06/29 04:32:50;;;;;;;5.35;3.85;;;;;;;;;;5094934;28;20056;-85
2023/06/29 04:35:17;;;;;;;4.78;3.15;;;;;;;;;;5095166;28;20052;-85
2023/06/29 04:37:45;;;;;;;5.55;3.58;;;;;;;;;;5094749;28;20047;-85
2023/06/29 04:40:14;;;;;;;4.10;3.70;;;;;;;;;;5096222;28;20085;-86
2023/06/29 04:42:45;;;;;;;3.35;3.15;;;;;;;;;;5094814;28;20459;-85
2023/06/29 04:45:17;;;;;;;3.35;2.95;;;;;;;;;;5094890;28;20044;-85
2023/06/29 04:47:45;;;;;;;4.88;3.20;;;;;;;;;;5095825;28;20093;-85
2023/06/29 04:50:13;;;;;;;4.97;3.55;;;;;;;;;;5094749;28;20052;-85
2023/06/29 04:52:41;;;;;;;3.38;3.08;;;;;;;;;;5094353;28;20044;-86
2023/06/29 04:55:09;;;;;;;5.50;2.92;;;;;;;;;;5094894;28;20048;-85
2023/06/29 04:57:36;;;;;;;2.95;2.75;;;;;;;;;;5096295;28;20489;-86
2023/06/29 05:00:10;;;;;;;2.90;2.65;;;;;;;;;;5098514;28;20048;-86
2023/06/29 05:02:38;;;;;;;3.72;2.33;;;;;;;;;;5107884;28;20207;-86
2023/06/29 05:05:06;;;;;;;3.05;2.33;;;;;;;;;;5095007;28;20051;-85
2023/06/29 05:07:34;;;;;;;2.35;2.15;;;;;;;;;;5094131;28;20051;-85
2023/06/29 05:10:02;;;;;;;2.20;2.00;;;;;;;;;;5096192;28;20413;-86
2023/06/29 05:12:29;;;;;;;2.95;2.20;;;;;;;;;;5095037;28;20065;-85
2023/06/29 05:14:56;;;;;;;2.35;1.58;;;;;;;;;;5095534;28;20048;-85
2023/06/29 05:17:23;;;;;;;1.85;1.75;;;;;;;;;;5094276;28;20048;-85
2023/06/29 05:19:51;;;;;;;1.58;1.50;;;;;;;;;;5094161;28;20513;-86
2023/06/29 05:22:18;;;;;;;1.67;1.50;;;;;;;;;;5094040;28;20044;-86
2023/06/29 05:24:46;;;;;;;1.77;1.30;;;;;;;;;;5093758;28;20052;-86
2023/06/29 05:27:13;;;;;;;3.72;1.70;;;;;;;;;;5093807;28;20040;-85
2023/06/29 05:29:40;;;;;;;4.55;1.60;;;;;;;;;;5093775;28;20071;-86
2023/06/29 05:32:08;;;;;;;4.75;1.58;;;;;;;;;;5094499;28;20501;-85
2023/06/29 05:34:35;;;;;;;2.47;1.40;;;;;;;;;;5093838;28;20490;-84
2023/06/29 05:37:03;;;;;;;3.75;1.60;;;;;;;;;;5093641;28;20055;-84
2023/06/29 05:39:30;;;;;;;8.98;1.65;;;;;;;;;;5094888;28;20044;-83
2023/06/29 05:41:57;;;;;;;4.32;1.30;;;;;;;;;;5095472;28;20048;-84
2023/06/29 05:44:26;;;;;;;2.28;1.70;;;;;;;;;;5095061;28;20048;-83
2023/06/29 05:46:53;;;;;;;3.00;1.63;;;;;;;;;;5093396;28;20048;-83
2023/06/29 05:49:22;;;;;;;1.92;1.55;;;;;;;;;;5093981;28;20446;-83
2023/06/29 05:51:50;;;;;;;3.83;1.50;;;;;;;;;;5093457;28;20052;-84
2023/06/29 05:54:18;;;;;;;2.58;1.50;;;;;;;;;;5093637;28;20520;-84
2023/06/29 05:56:45;;;;;;;5.03;1.73;;;;;;;;;;5093336;28;20059;-84
2023/06/29 05:59:12;;;;;;;4.00;2.05;;;;;;;;;;5093159;28;20097;-83
2023/06/29 06:01:40;;;;;;;11.50;2.80;;;;;;;;;;5093349;28;20043;-84
2023/06/29 06:04:07;;;;;;;13.70;2.50;;;;;;;;;;5093310;28;20069;-84
2023/06/29 06:06:34;;;;;;;9.32;2.72;;;;;;;;;;5093008;28;20044;-84
2023/06/29 06:09:02;;;;;;;1.80;1.70;;;;;;;;;;5092955;28;20048;-84
2023/06/29 06:11:30;;;;;;;2.85;1.90;;;;;;;;;;5092976;28;20078;-83
2023/06/29 06:13:57;;;;;;;14.82;10.38;;;;;;;;;;5092087;28;20074;-84
2023/06/29 06:16:24;;;;;;;7.90;5.43;;;;;;;;;;5093041;28;20051;-84
2023/06/29 06:18:52;;;;;;;4.50;4.10;;;;;;;;;;5093085;28;20040;-84
2023/06/29 06:21:19;;;;;;;5.22;4.53;;;;;;;;;;5092958;28;20050;-84
2023/06/29 06:23:47;;;;;;;2.72;2.50;;;;;;;;;;5092844;28;20126;-84
2023/06/29 06:26:14;;;;;;;2.30;2.10;;;;;;;;;;5093074;28;20044;-84
2023/06/29 06:28:41;;;;;;;1.95;1.85;;;;;;;;;;5093203;28;20054;-84
2023/06/29 06:31:09;;;;;;;1.38;1.17;;;;;;;;;;5093271;28;20052;-84
2023/06/29 06:33:57;;;;;;;2.97;2.53;;;;;;;;;;5096914;28;20056;-84
2023/06/29 06:36:25;;;;;;;4.07;2.75;;;;;;;;;;5104342;28;20539;-84
2023/06/29 06:38:53;;;;;;;5.80;3.45;;;;;;;;;;5100968;28;20044;-84
2023/06/29 06:41:20;;;;;;;5.82;3.38;;;;;;;;;;5102227;28;20051;-84
2023/06/29 06:43:50;;;;;;;10.77;2.75;;;;;;;;;;5101674;28;20055;-82
2023/06/29 06:46:17;;;;;;;6.32;2.15;;;;;;;;;;5096740;28;20105;-83
2023/06/29 06:48:45;;;;;;;2.08;1.40;;;;;;;;;;5094341;28;20058;-83
2023/06/29 06:51:12;;;;;;;11.10;4.80;;;;;;;;;;5095343;28;20059;-83
2023/06/29 06:53:42;;;;;;;13.75;3.35;;;;;;;;;;5095157;28;20048;-83
2023/06/29 06:56:09;;;;;;;10.00;3.35;;;;;;;;;;5096566;28;20496;-82
2023/06/29 06:58:37;;;;;;;10.07;4.13;;;;;;;;;;5096443;28;20052;-83
2023/06/29 07:01:04;;;;;;;11.15;3.35;;;;;;;;;;5095881;28;20417;-82
2023/06/29 07:03:31;;;;;;;8.18;3.13;;;;;;;;;;5095594;28;20474;-83
2023/06/29 07:05:59;;;;;;;4.32;2.33;;;;;;;;;;5095428;28;20151;-82
2023/06/29 07:08:27;;;;;;;4.25;2.28;;;;;;;;;;5097986;28;20052;-85
2023/06/29 07:10:55;;;;;;;7.00;2.83;;;;;;;;;;5101774;28;20052;-82
2023/06/29 07:13:27;;;;;;;4.53;1.98;;;;;;;;;;5102352;28;20051;-83
2023/06/29 07:15:55;;;;;;;4.55;2.67;;;;;;;;;;5101370;28;20048;-84
2023/06/29 07:18:22;;;;;;;2.35;1.50;;;;;;;;;;5101780;28;20104;-83
2023/06/29 07:20:50;;;;;;;3.97;1.80;;;;;;;;;;5104114;28;20058;-84
2023/06/29 07:23:23;;;;;;;5.18;1.83;;;;;;;;;;5107304;28;20052;-83
2023/06/29 07:25:54;;;;;;;4.38;1.58;;;;;;;;;;5105562;28;20048;-82
2023/06/29 07:28:21;;;;;;;4.43;1.60;;;;;;;;;;5097220;28;20052;-83
2023/06/29 07:30:51;;;;;;;3.47;1.55;;;;;;;;;;5095753;28;20048;-83
2023/06/29 07:33:19;;;;;;;3.92;1.17;;;;;;;;;;5099184;28;20176;-83
2023/06/29 07:35:48;;;;;;;5.45;1.25;;;;;;;;;;5098052;28;20055;-84
2023/06/29 07:38:16;;;;;;;2.08;1.00;;;;;;;;;;5093866;28;20040;-84
2023/06/29 07:40:43;;;;;;;4.03;1.10;;;;;;;;;;5099494;28;20048;-85
2023/06/29 07:43:14;;;;;;;2.10;0.77;;;;;;;;;;5098316;28;20044;-83
2023/06/29 07:45:42;;;;;;;3.50;1.13;;;;;;;;;;5096006;28;20048;-84
2023/06/29 07:48:10;;;;;;;2.75;1.00;;;;;;;;;;5092252;28;20048;-84
2023/06/29 07:50:37;;;;;;;3.33;3.03;;;;;;;;;;5092397;28;20094;-84
2023/06/29 07:53:06;;;;;;;2.50;2.05;;;;;;;;;;5091739;28;20055;-84
2023/06/29 07:55:34;;;;;;;3.08;2.05;;;;;;;;;;5091671;28;20127;-84
2023/06/29 07:58:01;;;;;;;2.95;1.55;;;;;;;;;;5092646;28;20097;-84
2023/06/29 08:00:31;;;;;;;1.80;1.40;;;;;;;;;;5091601;28;20043;-84
2023/06/29 08:02:59;;;;;;;1.25;1.10;;;;;;;;;;5091549;28;20044;-85
2023/06/29 08:05:27;;;;;;;1.90;1.67;;;;;;;;;;5091492;28;20409;-85
2023/06/29 08:07:57;;;;;;;6.30;4.75;;;;;;;;;;5091832;28;20048;-85
2023/06/29 08:10:24;;;;;;;7.22;5.82;;;;;;;;;;5091374;28;20040;-85
2023/06/29 08:12:55;;;;;;;4.40;3.10;;;;;;;;;;5091689;28;20055;-85
2023/06/29 08:15:23;;;;;;;4.65;3.30;;;;;;;;;;5091743;28;20047;-85
2023/06/29 08:17:51;;;;;;;6.13;3.13;;;;;;;;;;5091693;28;20048;-85
2023/06/29 08:20:18;;;;;;;4.00;2.58;;;;;;;;;;5091303;28;20130;-84
2023/06/29 08:22:48;;;;;;;2.20;2.00;;;;;;;;;;5091428;28;20055;-86
2023/06/29 08:25:16;;;;;;;3.60;1.70;;;;;;;;;;5091842;28;20047;-84
2023/06/29 08:27:43;;;;;;;2.70;2.20;;;;;;;;;;5091601;28;20047;-84
2023/06/29 08:30:11;;;;;;;4.40;2.20;;;;;;;;;;5092147;28;20048;-84
2023/06/29 08:32:39;;;;;;;3.72;1.95;;;;;;;;;;5091652;28;20048;-85
2023/06/29 08:35:07;;;;;;;4.63;1.80;;;;;;;;;;5091545;28;20248;-85
2023/06/29 08:37:34;;;;;;;1.42;1.15;;;;;;;;;;5094686;28;20079;-85
2023/06/29 08:40:05;;;;;;;1.70;1.13;;;;;;;;;;5095023;28;20044;-84
2023/06/29 08:42:32;;;;;;;1.60;1.38;;;;;;;;;;5095421;28;20051;-85
2023/06/29 08:45:01;;;;;;;1.83;1.40;;;;;;;;;;5095158;28;20043;-85
2023/06/29 08:47:29;;;;;;;4.30;1.85;;;;;;;;;;5095297;28;20079;-85
2023/06/29 08:49:57;;;;;;;2.17;1.38;;;;;;;;;;5095080;28;20086;-84
2023/06/29 08:52:27;;;;;;;1.52;1.00;;;;;;;;;;5095465;28;20051;-85
2023/06/29 08:54:54;;;;;;;4.07;1.40;;;;;;;;;;5095478;28;20054;-84
2023/06/29 08:57:22;;;;;;;1.85;0.90;;;;;;;;;;5095215;28;20043;-85
2023/06/29 08:59:50;;;;;;;1.50;0.90;;;;;;;;;;5095682;28;20056;-84
2023/06/29 09:02:18;;;;;;;2.17;1.05;;;;;;;;;;5094830;28;20489;-85
2023/06/29 09:04:45;;;;;;;1.00;0.90;;;;;;;;;;5095315;28;20117;-85
2023/06/29 09:07:15;;;;;;;1.95;1.15;;;;;;;;;;5094609;28;20485;-85
2023/06/29 09:09:43;;;;;;;3.60;0.93;;;;;;;;;;5094347;28;20059;-85
2023/06/29 09:12:11;;;;;;;2.03;1.10;;;;;;;;;;5094436;28;20059;-85
2023/06/29 09:14:44;;;;;;;6.28;1.38;;;;;;;;;;5094437;28;20059;-85
2023/06/29 09:17:14;;;;;;;1.63;1.10;;;;;;;;;;5094643;28;20056;-86
2023/06/29 09:19:50;;;;;;;2.25;1.08;;;;;;;;;;5094421;28;20056;-84
2023/06/29 09:22:19;;;;;;;4.53;1.20;;;;;;;;;;5094447;28;20101;-84
2023/06/29 09:24:48;;;;;;;2.85;1.17;;;;;;;;;;5095751;28;20048;-84
2023/06/29 09:27:35;;;;;;;1.63;1.20;;;;;;;;;;5095253;28;20048;-84
2023/06/29 09:30:04;;;;;;;1.25;0.98;;;;;;;;;;5095057;28;20047;-85
2023/06/29 09:32:31;;;;;;;1.92;1.00;;;;;;;;;;5093712;28;20052;-84
2023/06/29 09:35:06;;;;;;;3.13;1.25;;;;;;;;;;5094305;28;20048;-85
2023/06/29 09:37:35;;;;;;;1.50;1.02;;;;;;;;;;5094990;28;20497;-85
2023/06/29 09:40:11;;;;;;;1.45;1.10;;;;;;;;;;5098953;28;20050;-85
2023/06/29 09:42:39;;;;;;;1.65;0.85;;;;;;;;;;5098917;28;20105;-85
2023/06/29 09:45:14;;;;;;;2.08;1.02;;;;;;;;;;5093765;28;20494;-85
2023/06/29 09:47:49;;;;;;;1.23;1.00;;;;;;;;;;5094066;28;20127;-82
2023/06/29 09:50:58;;;;;;;2.38;1.15;;;;;;;;;;5094217;28;20059;-85
2023/06/29 09:53:30;;;;;;;1.20;1.05;;;;;;;;;;5093909;28;20052;-84
2023/06/29 09:56:02;;;;;;;2.20;0.90;;;;;;;;;;5093834;28;20082;-86
2023/06/29 09:58:30;;;;;;;2.78;1.02;;;;;;;;;;5093633;28;20082;-85
2023/06/29 10:01:00;;;;;;;1.95;1.30;;;;;;;;;;5094297;28;20077;-86
2023/06/29 10:03:31;;;;;;;1.35;1.23;;;;;;;;;;5095050;28;20056;-84
2023/06/29 10:06:01;;;;;;;1.85;0.80;;;;;;;;;;5096643;28;20071;-84
2023/06/29 10:08:32;;;;;;;1.65;1.20;;;;;;;;;;5097448;28;20075;-85
2023/06/29 10:11:01;;;;;;;3.00;1.10;;;;;;;;;;5094945;28;20048;-84
2023/06/29 10:13:31;;;;;;;1.15;1.05;;;;;;;;;;5093953;28;20094;-85
2023/06/29 10:16:01;;;;;;;0.70;0.70;;;;;;;;;;5095949;28;20051;-85
2023/06/29 10:18:30;;;;;;;1.48;1.17;;;;;;;;;;5097232;28;20059;-86
2023/06/29 10:20:58;;;;;;;3.10;1.33;;;;;;;;;;5095177;28;20048;-85
2023/06/29 10:23:25;;;;;;;3.08;1.00;;;;;;;;;;5094223;28;20059;-86
2023/06/29 10:25:53;;;;;;;1.83;1.20;;;;;;;;;;5093023;28;20044;-85
2023/06/29 10:28:21;;;;;;;2.15;0.90;;;;;;;;;;5096306;28;20051;-84
2023/06/29 10:30:52;;;;;;;6.88;1.42;;;;;;;;;;5095151;28;20163;-84
2023/06/29 10:33:23;;;;;;;4.15;1.40;;;;;;;;;;5092659;28;20060;-86
2023/06/29 10:35:57;;;;;;;0.95;0.88;;;;;;;;;;5093608;28;20052;-84
2023/06/29 10:38:34;;;;;;;1.50;1.20;;;;;;;;;;5094170;28;20109;-84
2023/06/29 10:41:08;;;;;;;6.05;1.60;;;;;;;;;;5092979;28;20051;-84
2023/06/29 10:43:55;;;;;;;5.15;1.40;;;;;;;;;;5092940;28;20054;-84
2023/06/29 10:46:54;;;;;;;0.82;0.82;;;;;;;;;;5097460;28;20047;-84
2023/06/29 10:49:26;;;;;;;1.17;1.00;;;;;;;;;;5067503;28;20131;-84
2023/06/29 10:51:54;;;;;;;1.65;1.00;;;;;;;;;;5095375;28;20044;-84
2023/06/29 10:54:22;;;;;;;6.60;1.40;;;;;;;;;;5095253;28;20073;-84
2023/06/29 10:56:57;;;;;;;6.60;1.35;;;;;;;;;;5093568;28;20109;-85
2023/06/29 10:59:25;;;;;;;1.48;1.38;;;;;;;;;;5092190;28;20040;-84
2023/06/29 11:01:54;;;;;;;4.20;1.27;;;;;;;;;;5095290;28;20414;-84
2023/06/29 11:04:25;;;;;;;3.80;1.17;;;;;;;;;;5095215;28;20043;-85
2023/06/29 11:06:52;;;;;;;1.48;0.90;;;;;;;;;;5094036;28;20580;-85
2023/06/29 11:09:20;;;;;;;8.73;1.40;;;;;;;;;;5094585;28;20052;-85
2023/06/29 11:11:50;;;;;;;1.45;1.20;;;;;;;;;;5092485;28;20059;-84
2023/06/29 11:14:18;;;;;;;3.90;1.48;;;;;;;;;;5092253;28;20085;-84
2023/06/29 11:16:49;;;;;;;3.28;1.23;;;;;;;;;;5094402;28;20048;-85
2023/06/29 11:19:17;;;;;;;2.50;1.20;;;;;;;;;;5094170;28;20059;-86
2023/06/29 11:21:45;;;;;;;2.22;0.95;;;;;;;;;;5093830;28;20066;-85
2023/06/29 11:24:13;;;;;;;2.00;1.05;;;;;;;;;;5092960;28;20052;-84
2023/06/29 11:26:43;;;;;;;1.52;1.17;;;;;;;;;;5093804;28;20105;-86
2023/06/29 11:29:11;;;;;;;6.88;1.40;;;;;;;;;;5094464;28;20409;-85
2023/06/29 11:31:38;;;;;;;7.25;1.38;;;;;;;;;;5092505;28;20425;-85
2023/06/29 11:34:06;;;;;;;3.47;1.10;;;;;;;;;;5092387;28;20048;-86
2023/06/29 11:36:36;;;;;;;1.00;0.90;;;;;;;;;;5093720;28;20047;-86
2023/06/29 11:39:04;;;;;;;3.08;1.60;;;;;;;;;;5092663;28;20051;-83
2023/06/29 11:41:32;;;;;;;9.00;2.72;;;;;;;;;;5094237;28;20048;-85
2023/06/29 11:44:00;;;;;;;2.00;1.52;;;;;;;;;;5093661;28;20051;-85
2023/06/29 11:46:35;;;;;;;1.10;1.00;;;;;;;;;;5092648;28;20100;-88
2023/06/29 11:49:04;;;;;;;3.03;0.90;;;;;;;;;;5092361;28;20044;-85
2023/06/29 11:51:38;;;;;;;3.63;1.33;;;;;;;;;;5094319;28;20040;-85
2023/06/29 11:54:07;;;;;;;5.13;1.20;;;;;;;;;;5093505;28;20083;-88
2023/06/29 11:56:39;;;;;;;4.05;1.25;;;;;;;;;;5096310;28;20130;-84
2023/06/29 11:59:07;;;;;;;2.05;1.10;;;;;;;;;;5095390;28;20048;-88
2023/06/29 12:01:35;;;;;;;3.65;1.25;;;;;;;;;;5093806;28;20045;-88
2023/06/29 12:04:07;;;;;;;6.63;2.25;;;;;;;;;;5092717;28;20056;-86
2023/06/29 12:06:35;;;;;;;4.18;1.60;;;;;;;;;;5093250;28;20048;-89
2023/06/29 12:09:11;;;;;;;1.30;1.05;;;;;;;;;;5092495;28;20051;-84
2023/06/29 12:11:42;;;;;;;1.30;1.10;;;;;;;;;;5095829;28;20105;-83
2023/06/29 12:14:09;;;;;;;2.92;1.63;;;;;;;;;;5096681;28;20485;-85
2023/06/29 12:16:41;;;;;;;2.88;1.13;;;;;;;;;;5096499;28;20505;-85
2023/06/29 12:19:11;;;;;;;2.70;1.40;;;;;;;;;;5097666;28;20060;-85
2023/06/29 12:21:39;;;;;;;3.28;1.25;;;;;;;;;;5095468;28;20108;-85
2023/06/29 12:24:07;;;;;;;1.27;0.80;;;;;;;;;;5095755;28;20044;-85
2023/06/29 12:26:35;;;;;;;1.40;0.60;;;;;;;;;;5095622;28;20074;-86
2023/06/29 12:29:02;;;;;;;1.08;0.85;;;;;;;;;;5095946;28;20044;-85
2023/06/29 12:31:30;;;;;;;5.55;1.30;;;;;;;;;;5095036;28;20055;-84
2023/06/29 12:33:58;;;;;;;2.80;1.30;;;;;;;;;;5095545;28;20066;-86
2023/06/29 12:36:30;;;;;;;5.63;1.25;;;;;;;;;;5096380;28;20059;-85
2023/06/29 12:38:57;;;;;;;2.25;1.13;;;;;;;;;;5098591;28;20101;-86
2023/06/29 12:41:24;;;;;;;4.80;2.10;;;;;;;;;;5096446;28;20048;-84
2023/06/29 12:43:52;;;;;;;1.98;1.15;;;;;;;;;;5095155;28;20056;-86
2023/06/29 12:46:22;;;;;;;2.50;1.20;;;;;;;;;;5096567;28;20040;-86
2023/06/29 12:48:49;;;;;;;4.28;1.60;;;;;;;;;;5095107;28;20040;-85
2023/06/29 12:51:18;;;;;;;7.18;2.25;;;;;;;;;;5095136;28;20055;-84
2023/06/29 12:53:45;;;;;;;2.97;1.17;;;;;;;;;;5096612;28;20063;-85
2023/06/29 12:56:12;;;;;;;4.28;1.45;;;;;;;;;;5095979;28;20083;-83
2023/06/29 12:58:40;;;;;;;1.60;0.95;;;;;;;;;;5095184;28;20052;-87
2023/06/29 13:01:07;;;;;;;2.58;1.40;;;;;;;;;;5096214;28;20504;-85
2023/06/29 13:03:34;;;;;;;5.45;2.50;;;;;;;;;;5096051;28;20451;-84
2023/06/29 13:06:02;;;;;;;8.55;2.65;;;;;;;;;;5095136;28;20052;-85
2023/06/29 13:08:30;;;;;;;6.80;2.05;;;;;;;;;;5094736;28;20052;-85
2023/06/29 13:10:58;;;;;;;7.05;1.50;;;;;;;;;;5097075;28;20059;-85
2023/06/29 13:13:26;;;;;;;2.25;1.25;;;;;;;;;;5097542;28;20052;-83
2023/06/29 13:15:54;;;;;;;1.55;1.20;;;;;;;;;;5100669;28;20417;-82
2023/06/29 13:18:21;;;;;;;4.63;1.50;;;;;;;;;;5098227;28;20085;-83
2023/06/29 13:20:48;;;;;;;2.78;1.23;;;;;;;;;;5100923;28;20421;-85
2023/06/29 13:23:16;;;;;;;4.15;1.05;;;;;;;;;;5093857;28;20046;-85
2023/06/29 13:25:43;;;;;;;4.57;1.42;;;;;;;;;;5096812;28;20044;-85
2023/06/29 13:28:11;;;;;;;2.38;1.20;;;;;;;;;;5095199;28;20052;-85
2023/06/29 13:30:40;;;;;;;1.77;0.88;;;;;;;;;;5094512;28;20063;-85
2023/06/29 13:33:09;;;;;;;2.25;1.23;;;;;;;;;;5094962;28;20052;-85
2023/06/29 13:35:36;;;;;;;5.72;2.17;;;;;;;;;;5098449;28;20052;-85
2023/06/29 13:38:04;;;;;;;3.70;1.55;;;;;;;;;;5094812;28;20059;-86
2023/06/29 13:40:35;;;;;;;3.55;1.20;;;;;;;;;;5094485;28;20048;-85
2023/06/29 13:43:02;;;;;;;1.58;1.20;;;;;;;;;;5094710;28;20139;-87
2023/06/29 13:45:30;;;;;;;5.13;1.20;;;;;;;;;;5096314;28;20047;-88
2023/06/29 13:48:02;;;;;;;3.30;1.10;;;;;;;;;;5097327;28;20047;-88
2023/06/29 13:50:30;;;;;;;1.67;1.10;;;;;;;;;;5094216;28;20078;-88
2023/06/29 13:53:08;;;;;;;5.03;1.73;;;;;;;;;;5093807;28;20048;-87
2023/06/29 13:55:36;;;;;;;3.03;1.40;;;;;;;;;;5093593;28;20055;-87
2023/06/29 13:58:03;;;;;;;4.68;1.10;;;;;;;;;;5094513;28;20044;-87
2023/06/29 14:00:31;;;;;;;3.60;1.30;;;;;;;;;;5094349;28;20044;-87
2023/06/29 14:02:58;;;;;;;1.90;1.13;;;;;;;;;;5094973;28;20139;-87
2023/06/29 14:05:25;;;;;;;3.03;1.20;;;;;;;;;;5098230;28;20162;-87
2023/06/29 14:07:53;;;;;;;1.10;1.00;;;;;;;;;;5119033;28;20365;-86
2023/06/29 14:10:20;;;;;;;1.10;1.00;;;;;;;;;;5097274;28;20125;-87
2023/06/29 14:12:48;;;;;;;1.70;1.02;;;;;;;;;;5093403;28;20051;-88
2023/06/29 14:15:15;;;;;;;1.88;1.35;;;;;;;;;;5093255;28;20044;-87
2023/06/29 14:17:43;;;;;;;2.67;1.35;;;;;;;;;;5093633;28;20054;-87
2023/06/29 14:20:10;;;;;;;3.42;1.42;;;;;;;;;;5093222;28;20040;-85
2023/06/29 14:22:38;;;;;;;3.50;1.38;;;;;;;;;;5093313;28;20071;-87
2023/06/29 14:25:07;;;;;;;4.20;1.30;;;;;;;;;;5093610;28;20097;-87
2023/06/29 14:27:35;;;;;;;2.30;1.20;;;;;;;;;;5094274;28;20044;-88
2023/06/29 14:30:05;;;;;;;3.05;1.20;;;;;;;;;;5093461;28;20079;-85
2023/06/29 14:32:33;;;;;;;2.17;1.60;;;;;;;;;;5092864;28;20052;-86
2023/06/29 14:35:00;;;;;;;1.15;1.15;;;;;;;;;;5092567;28;20043;-87
2023/06/29 14:37:28;;;;;;;3.72;1.40;;;;;;;;;;5094285;28;20048;-87
2023/06/29 14:39:55;;;;;;;1.75;1.30;;;;;;;;;;5092928;28;20055;-87
2023/06/29 14:42:23;;;;;;;2.25;1.08;;;;;;;;;;5093165;28;20048;-87
2023/06/29 14:44:50;;;;;;;6.32;1.17;;;;;;;;;;5094130;28;20101;-88
2023/06/29 14:47:17;;;;;;;1.73;1.00;;;;;;;;;;5093595;28;20159;-85
2023/06/29 14:49:45;;;;;;;6.40;1.30;;;;;;;;;;5092478;28;20052;-85
2023/06/29 14:52:13;;;;;;;1.55;1.45;;;;;;;;;;5093652;28;20051;-85